Thursday, April 24, 2014
21:17 UTC
  |  Log In   |  Register Free
Airport Search:

Okmulgee Regional Airport
(KOKM)

Okmulgee Regional Airport Diagram
No Airport Diagram Available

FAA data valid effective April 3, 2014 until May 29, 2014 (unless otherwise noted).

 
 
 
 
 
 
 
 
 
 
 
 
 
 

Current Aviation Weather for Okmulgee Regional Airport (KOKM)

The most recent METAR observation for KOKM was updated at: 2055 UTC
METAR Summary (Translated METAR)
KOKM
242055Z AUTO 30019G28KT 10SM SCT049 SCT060 22/10 A2976 RMK AO2 T02190099
KRVS
(22.4 nm NW from KOKM)
242053Z 32012G28KT 10SM BKN050 22/09 A2975 RMK AO2 PK WND 30028/2049 SLP079 T02170089 51017
TAF Summary (Translated TAF)
KRVS
(22.4 nm NW from KOKM)
241748Z 2418/2518 26011KT P6SM VCTS BKN020CB FM242000 30012G20KT P6SM BKN050 FM250100 00000KT P6SM SKC
  Airport Weather Conditions for KOKM

 Current Weather at OKM
72° F
Overcast and Breezy
Northwest winds at 20.7 mph
OKM NOAA Radar

Pressure: 29.75 in
Humidity: 50%
Wind: from the Northwest at 20.7 gusting to 31.1 MPH (18 gusting to 27 KT)
Dew Point: 52.2°F
Visibility: 10.00 mi


Airport Weather Forecast for KOKM

Translated METAR and TAF for KOKM
Translated METAR for KOKM (2117 UTC 24 April 2014)
found at http://aviationweather.gov/adds/metars/
 
METAR text: KOKM 242055Z AUTO 30019G28KT 10SM SCT049 SCT060 22/10 A2976 RMK AO2 T02190099
Conditions at: KOKM (OKMULGEE , OK, US) observed 2055 UTC 24 April 2014
Temperature: 21.9°C (71°F)
Dewpoint: 9.9°C (50°F) [RH = 46%]
Pressure (altimeter): 29.76 inches Hg (1007.9 mb)
Winds: from the WNW (300 degrees) at 22 MPH (19 knots; 9.9 m/s)
gusting to 32 MPH (28 knots; 14.6 m/s)
Visibility: 10 or more miles (16+ km)
Ceiling: at least 12,000 feet AGL
Clouds: scattered clouds at 4900 feet AGL
scattered clouds at 6000 feet AGL
Weather: automated observation with no human augmentation;
there may or may not be significant weather present at this time
Translated TAF for KOKM

There is no translated TAF available for this airport

Find All Airport Services Find A Hotel Find A Rental Car Find A Golf Course Find A Restaurant $100 Hamburger



FBO's on the Field
FBO Company Facility Photos Services Transportation Aviation Fuel Prices: Prices include tax
Catering Weather Repair Courtesy Rental Type 100LL JetA JetA+ MOGAS 8087
 
Okmulgee Regional Airport

This FBO has not yet been rated
FS:Phillips66
Last Updated: Apr-24
Login to update fuel prices
SS:
Contact Okmulgee Regional AirportMore FBO Information
 
Add another FBO Facility Photos Catering Weather Repair Courtesy Rental Type 100LL JetA JetA+ MOGAS 8087
Services Transportation Aviation Fuel Prices: Prices include tax


GlobalAir.com Airport Resource Center model-print
model-print
model-print
model-print